Farmington, NM

1:37 PM MDT on September 22, 2014 (GMT -0600)
Cortez Municipal | Change Station
CLOSE
Current Station
Airport
Location: Cortez,
Elevation: 5915 ft
Nearby Weather Stations

Elev 5915 ft 37.31 °N, 108.63 °W | Updated 44 minutes ago

Partly Cloudy
Partly Cloudy
75 °F
Feels Like 75 °F
N
12
Wind Variable Wind from SSW

Today
High -- | Low -- °F
--% Chance of Precip.
Yesterday
High -- | Low -- °F
Precip. -- in
7:00 AM 7:09 PM
Waning Crescent, 2% visible
Pressure 30.09 in
Visibility 10.0 miles
Clouds Clear
Dew Point 56 °F
Humidity 51%
Rainfall 0.02 in
Snow Depth 3 in , 0 in , 0 in
UV 9 out of 12
Pollen 4.30 out of 12
Air Quality Not available.
Flu Activity Not available.
METAR KCEZ 221853Z AUTO 20010KT 10SM CLR 24/13 A3030 RMK AO2 SLP187 T02390133

More Conditions Fewer Conditions

Pressure 30.09 in
Visibility 10.0 miles
Clouds Clear
Dew Point 56 °F
Humidity 51%
Rainfall 0.02 in
Snow Depth 3 in , 0 in , 0 in
UV 9 out of 12
Pollen 4.30 out of 12
Air Quality Not available.
Flu Activity Not available.
METAR KCEZ 221853Z AUTO 20010KT 10SM CLR 24/13 A3030 RMK AO2 SLP187 T02390133

More Conditions Fewer Conditions

Nowcast | as of 1:00 PM MDT on September 22, 2014

Through 300 PM....thunderstorms will increase in coverage and intensity over portions of northwest New Mexico...as well as over the higher terrain of west central and southwest New Mexico. Movement will generally be toward the northeast at 10 to 15 mph. Some communities impacted by storms through early afternoon include but are not limited to Canon Plaza...El Rito...Nageezi...Ojo Encino... Prewitt...Acoma Pueblo...Aragon and Horse Springs. Rainfall rates will average between one half and one inch in an hours time with these stronger storms. Otherwise...scattered showers will dot the landscape of western New Mexico producing brief bursts of one tenth to three tenths of an inch. Runoff from locally heavy rain will result in localized flooding.

×

10-Day Weather Forecast

Almanac

Astronomy

Sep. 22, 2014 Rise Set
Actual Time 7:00 AM MDT 7:09 PM MDT
Civil Twilight 6:34 AM MDT 7:35 PM MDT
Nautical Twilight 6:04 AM MDT 8:05 PM MDT
Astronomical Twilight 5:34 AM MDT 8:36 PM MDT
Moon 5:33 AM MDT 6:17 PM MDT
Length of Visible Light 13h 00m
Length of Day
12h 08m
Tomorrow will be 2m 20s shorter.
Waning Crescent, 2% of the Moon is Illuminated
Today
Waning Crescent
Sep 24
New
Oct 1
First Quarter
Oct 8
Full
Oct 15
Last Quarter

Today's Extremes

State Highs State Lows

Community

WunderPhotos

Upload Photos

1,755,514 photos uploaded!

WunderBlogs® & News

Nearby

Snow Depth

Station Depth Elevation
Wesner Springs 3 in 11120 ft
Silver Creek Divide 0 in 9000 ft
Signal Peak 0 in 8360 ft
Sierra Blanca 0 in 10280 ft
Quemazon 1 in 9500 ft

Earthquake Activity

City Distance Mag. Time & Date
No recent earthquake activity has been reported nearby.
Minimum magnitude displayed is 2.5.

Coastal Water Temperatures

Place Temperature
No Stations Reporting

Nearby Weather Stations